KSJX

Beaver Island Airport

Beaver Island, Michigan, USA
METAR KSJX 260355Z AUTO 22015KT 10SM CLR 16/12 A2974 RMK AO2 T01570118 402620110
Observed Flight Rules
May-26 @ 03:55 UTC (25 minutes ago) Visual Flight Rules
Wind Visibility Clouds
220° at 15 knots 10 miles
  • Clear skies
Temperatures Readings
Current 16°C / 61°F
Dewpoint 12°C / 54°F
Humidity 77%
Altimeter 29.74" Hg
Pressure 1007 hPa
Elevation 204
METAR KSJX 260355Z AUTO 22015KT 10SM CLR 16/12 A2974 RMK AO2 T01570118 402620110
Observed Flight Rules
May-26 @ 03:55 UTC
(25 minutes ago)
VFR
Wind Visibility
220° at 15 knots 10 miles
Clouds
  • Clear skies
Temperature Dewpoint
16°C / 61°F 12°C / 54°F
Humidity Altimeter Pressure
77% 29.74" Hg 1007 hPa